createdAt,value
2023-05-06T00:00:22.076Z,10.4
2023-05-06T00:02:25.988Z,10.4
2023-05-06T00:03:29.644Z,10.4
2023-05-06T00:11:48.223Z,10.3
2023-05-06T00:13:52.034Z,10.3
2023-05-06T00:15:55.923Z,10.3
2023-05-06T00:24:11.407Z,10.2
2023-05-06T00:26:18.486Z,10.2
2023-05-06T00:28:22.354Z,10.2
2023-05-06T00:30:26.205Z,10.2
2023-05-06T00:32:30.086Z,10.2
2023-05-06T00:34:33.925Z,10.2
2023-05-06T00:36:37.788Z,10.2
2023-05-06T00:38:41.660Z,10.2
2023-05-06T00:40:48.776Z,10.1
2023-05-06T00:42:52.632Z,10.1
2023-05-06T00:44:56.507Z,10
2023-05-06T00:47:00.362Z,10.1
2023-05-06T00:49:04.197Z,10
2023-05-06T00:51:08.091Z,10
2023-05-06T00:53:11.947Z,9.9
2023-05-06T00:55:19.089Z,9.9
2023-05-06T00:57:22.919Z,9.9
2023-05-06T00:59:26.793Z,9.8
2023-05-06T01:00:30.337Z,9.8
2023-05-06T01:02:43.732Z,9.8
2023-05-06T01:04:38.117Z,9.8
2023-05-06T01:06:41.948Z,9.7
2023-05-06T01:08:49.066Z,9.8
2023-05-06T01:10:52.937Z,9.7
2023-05-06T01:12:56.825Z,9.8
2023-05-06T01:15:00.641Z,9.7
2023-05-06T01:17:04.573Z,9.7
2023-05-06T01:19:08.369Z,9.7
2023-05-06T01:21:12.218Z,9.8
2023-05-06T01:23:19.354Z,9.8
2023-05-06T01:25:23.193Z,9.8
2023-05-06T01:31:34.796Z,9.8
2023-05-06T01:35:42.522Z,9.8
2023-05-06T02:01:00.212Z,9.9
2023-05-06T02:13:26.626Z,9.7
2023-05-06T02:15:30.478Z,9.6
2023-05-06T02:32:04.587Z,9.6
2023-05-06T02:34:11.733Z,9.6
2023-05-06T02:40:23.311Z,9.5
2023-05-06T02:44:31.013Z,9.6
2023-05-06T02:46:34.862Z,9.6
2023-05-06T02:48:42.013Z,9.7
2023-05-06T02:53:53.253Z,9.6
2023-05-06T02:55:57.132Z,9.7
2023-05-06T02:58:00.974Z,9.7
2023-05-06T03:00:04.824Z,9.7
2023-05-06T03:02:11.953Z,9.8
2023-05-06T03:06:19.689Z,9.8
2023-05-06T03:08:23.563Z,9.9
2023-05-06T03:10:27.388Z,9.9
2023-05-06T03:12:31.249Z,9.9
2023-05-06T03:14:35.104Z,9.9
2023-05-06T03:22:53.825Z,9.8
2023-05-06T03:24:57.660Z,9.8
2023-05-06T03:27:01.524Z,9.8
2023-05-06T03:29:05.393Z,9.8
2023-05-06T03:45:42.776Z,9.5
2023-05-06T03:47:46.792Z,9.6
2023-05-06T03:49:50.490Z,9.6
2023-05-06T03:50:54.046Z,9.6
2023-05-06T04:03:20.524Z,9.5
2023-05-06T04:09:32.044Z,9.5
2023-05-06T04:11:35.915Z,9.5
2023-05-06T04:19:56.206Z,9.6
2023-05-06T04:22:00.126Z,9.6
2023-05-06T04:24:03.952Z,9.6
2023-05-06T04:26:07.802Z,9.6
2023-05-06T04:28:15.055Z,9.7
2023-05-06T04:30:18.808Z,9.7
2023-05-06T04:32:22.641Z,9.7
2023-05-06T04:40:38.053Z,9.7
2023-05-06T04:44:49.063Z,9.6
2023-05-06T04:47:56.575Z,9.7
2023-05-06T04:50:00.314Z,9.7
2023-05-06T04:52:04.207Z,9.7
2023-05-06T04:54:08.028Z,9.7
2023-05-06T04:56:15.198Z,9.7
2023-05-06T04:58:19.032Z,9.7
2023-05-06T05:02:26.839Z,9.7
2023-05-06T05:04:30.607Z,9.7
2023-05-06T05:06:34.452Z,9.8
2023-05-06T05:08:38.290Z,9.8
2023-05-06T05:10:45.442Z,9.9
2023-05-06T05:12:49.318Z,9.9
2023-05-06T05:16:57.053Z,10
2023-05-06T05:19:03.311Z,9.9
2023-05-06T05:21:04.718Z,9.9
2023-05-06T05:23:08.587Z,9.9
2023-05-06T05:25:15.727Z,10
2023-05-06T05:27:19.559Z,10
2023-05-06T05:29:23.422Z,10.1
2023-05-06T05:31:27.496Z,10.1
2023-05-06T05:33:31.151Z,10.3
2023-05-06T05:35:35.003Z,10.3
2023-05-06T05:39:46.034Z,10.3
2023-05-06T05:41:49.849Z,10.3
2023-05-06T05:43:53.731Z,10.3
2023-05-06T05:48:22.261Z,10.5
2023-05-06T05:50:26.131Z,10.5
2023-05-06T06:00:48.669Z,11
2023-05-06T06:04:56.474Z,11.2
2023-05-06T06:07:03.500Z,11.2
2023-05-06T06:09:07.395Z,11
2023-05-06T06:29:49.220Z,11.9
2023-05-06T06:31:53.133Z,12
2023-05-06T06:33:56.941Z,12.1
2023-05-06T06:36:04.087Z,12.5
2023-05-06T06:40:11.791Z,13
2023-05-06T06:41:15.398Z,14.5
2023-05-06T06:53:41.807Z,17.1
2023-05-06T06:57:49.554Z,17.3
2023-05-06T06:59:53.414Z,18.5
2023-05-06T07:06:08.265Z,16.9
2023-05-06T07:10:15.976Z,15.7
2023-05-06T07:14:23.704Z,15.4
2023-05-06T07:16:27.624Z,15.6
2023-05-06T07:18:34.695Z,16.5
2023-05-06T07:22:42.396Z,17.2
2023-05-06T07:24:46.259Z,18.8
2023-05-06T07:30:57.822Z,17.3
2023-05-06T07:33:04.971Z,17.1
2023-05-06T07:37:12.584Z,17.6
2023-05-06T07:38:16.177Z,17.5
2023-05-06T07:46:34.974Z,18.6
2023-05-06T07:48:38.655Z,18.2
2023-05-06T07:50:42.519Z,17.7
2023-05-06T07:52:46.364Z,16.5
2023-05-06T07:54:50.192Z,16
2023-05-06T07:56:54.068Z,16.4
2023-05-06T07:58:57.882Z,16.7
2023-05-06T08:01:05.037Z,17.1
2023-05-06T08:03:08.945Z,17.1
2023-05-06T08:11:24.220Z,17.8
2023-05-06T08:13:28.094Z,17.1
2023-05-06T08:15:35.176Z,17.2
2023-05-06T08:19:42.797Z,16.9
2023-05-06T08:21:46.625Z,16.6
2023-05-06T08:23:50.446Z,16.8
2023-05-06T08:35:16.406Z,19.2
2023-05-06T08:37:20.227Z,19.3
2023-05-06T08:39:24.051Z,19.2
2023-05-06T08:41:27.884Z,18.4
2023-05-06T08:43:34.957Z,18.5
2023-05-06T08:49:46.392Z,18.8
2023-05-06T08:51:50.191Z,18.4
2023-05-06T08:53:54.006Z,18.1
2023-05-06T08:55:57.814Z,18.4
2023-05-06T09:02:12.547Z,18.4
2023-05-06T09:04:16.350Z,18.1
2023-05-06T09:06:20.181Z,18.3
2023-05-06T09:08:24.009Z,18.6
2023-05-06T09:10:27.776Z,19
2023-05-06T09:14:38.654Z,19.2
2023-05-06T09:16:42.537Z,19.5
2023-05-06T09:18:46.312Z,19.9
2023-05-06T09:20:50.108Z,20.3
2023-05-06T09:22:53.951Z,20.5
2023-05-06T09:24:57.742Z,20.7
2023-05-06T09:27:04.785Z,20.1
2023-05-06T09:29:08.583Z,20.2
2023-05-06T09:31:12.424Z,20.4
2023-05-06T09:33:30.703Z,19.7
2023-05-06T10:06:37.937Z,20.7
2023-05-06T10:08:46.638Z,20.8
2023-05-06T10:10:50.360Z,21.1
2023-05-06T10:12:54.143Z,21.3
2023-05-06T10:14:57.903Z,21.4
2023-05-06T10:17:01.690Z,21.5
2023-05-06T10:19:05.471Z,21.1
2023-05-06T10:21:09.253Z,21.2
2023-05-06T10:23:16.283Z,21.4
2023-05-06T10:25:20.060Z,21.5
2023-05-06T10:27:23.847Z,21.6
2023-05-06T10:42:56.942Z,21.2
2023-05-06T10:45:00.690Z,20.8
2023-05-06T10:47:04.462Z,21.4
2023-05-06T10:51:15.256Z,21.7
2023-05-06T11:03:37.811Z,21.6
2023-05-06T11:20:14.391Z,21.7
2023-05-06T11:22:18.123Z,21.7
2023-05-06T11:25:25.334Z,21.6
2023-05-06T11:27:29.109Z,21.6
2023-05-06T11:29:32.886Z,21.5
2023-05-06T11:31:36.789Z,21.4
2023-05-06T11:33:43.630Z,21.5
2023-05-06T11:35:47.366Z,21.3
2023-05-06T11:37:51.131Z,21
2023-05-06T11:39:54.856Z,21
2023-05-06T11:41:58.586Z,21.4
2023-05-06T11:44:02.397Z,21.8
2023-05-06T11:46:06.143Z,21.6
2023-05-06T11:56:28.188Z,21.6
2023-05-06T12:00:35.695Z,21.1
2023-05-06T12:02:42.885Z,21.5
2023-05-06T12:04:46.556Z,21.7
2023-05-06T12:08:53.959Z,21.9
2023-05-06T12:10:57.732Z,22
2023-05-06T12:13:01.485Z,22.4
2023-05-06T12:15:05.178Z,22.4
2023-05-06T12:17:12.242Z,21.9
2023-05-06T12:19:15.979Z,21.9
2023-05-06T12:21:19.708Z,22
2023-05-06T12:30:41.500Z,23.1
2023-05-06T12:32:45.287Z,23.2
2023-05-06T12:36:52.692Z,22.9
2023-05-06T12:38:56.415Z,22.9
2023-05-06T12:43:03.856Z,22.6
2023-05-06T12:45:10.945Z,22.4
2023-05-06T12:47:14.633Z,22.7
2023-05-06T12:49:18.344Z,22.8
2023-05-06T12:51:22.094Z,22.6
2023-05-06T12:53:25.787Z,22.7
2023-05-06T13:14:09.483Z,22.7
2023-05-06T13:16:13.225Z,22.5
2023-05-06T13:18:16.923Z,22.7
2023-05-06T13:20:41.079Z,22.7
2023-05-06T13:22:53.881Z,22.6
2023-05-06T13:24:48.530Z,22.4
2023-05-06T13:26:55.528Z,22.9
2023-05-06T13:28:59.245Z,22.8
2023-05-06T13:35:10.636Z,22.8
2023-05-06T13:37:14.088Z,22.8
2023-05-06T13:39:17.803Z,22.5
2023-05-06T13:41:24.822Z,22.5
2023-05-06T13:43:28.500Z,22.6
2023-05-06T13:45:32.219Z,22.5
2023-05-06T13:47:35.980Z,22.7
2023-05-06T13:51:43.356Z,22.7
2023-05-06T13:53:47.080Z,22.7
2023-05-06T13:55:54.080Z,22.9
2023-05-06T13:57:57.812Z,22.9
2023-05-06T14:00:01.496Z,23
2023-05-06T14:02:08.727Z,22.8
2023-05-06T14:21:45.461Z,22.4
2023-05-06T14:25:56.161Z,22
2023-05-06T14:30:04.489Z,21.6
2023-05-06T14:32:07.317Z,21.5
2023-05-06T14:34:11.012Z,21.4
2023-05-06T14:36:14.757Z,21.4
2023-05-06T14:38:21.774Z,21.3
2023-05-06T14:40:25.482Z,21.2
2023-05-06T14:42:29.224Z,21.2
2023-05-06T14:46:36.704Z,21.2
2023-05-06T14:48:40.447Z,21.2
2023-05-06T14:52:51.293Z,21.3
2023-05-06T14:54:55.020Z,21.2
2023-05-06T14:56:58.787Z,21.2
2023-05-06T14:59:04.170Z,21.3
2023-05-06T15:01:06.318Z,21.3
2023-05-06T15:03:10.110Z,21.3
2023-05-06T15:05:14.070Z,21.5
2023-05-06T15:07:20.885Z,21.6
2023-05-06T15:09:24.634Z,21.6
2023-05-06T15:11:28.375Z,21.7
2023-05-06T15:14:35.665Z,21.5
2023-05-06T15:18:43.184Z,21.6
2023-05-06T15:24:57.686Z,21.5
2023-05-06T15:33:12.686Z,21
2023-05-06T15:35:19.746Z,21.2
2023-05-06T15:37:23.514Z,21.2
2023-05-06T15:39:27.268Z,21.1
2023-05-06T15:41:30.996Z,21
2023-05-06T15:43:37.948Z,20.9
2023-05-06T15:45:38.535Z,20.8
2023-05-06T15:47:42.327Z,20.7
2023-05-06T15:49:54.512Z,20.8
2023-05-06T15:51:53.136Z,20.6
2023-05-06T15:53:56.872Z,20.6
2023-05-06T15:56:13.063Z,20.6
2023-05-06T16:00:08.299Z,20.5
2023-05-06T16:02:32.442Z,20.5
2023-05-06T16:08:28.171Z,20.3
2023-05-06T16:09:31.723Z,20.3
2023-05-06T16:13:39.270Z,20.2
2023-05-06T16:17:50.178Z,20.2
2023-05-06T16:19:53.916Z,20.2
2023-05-06T16:21:57.734Z,20.2
2023-05-06T16:24:01.491Z,20.1
2023-05-06T16:26:05.262Z,20
2023-05-06T16:30:13.007Z,19.9
2023-05-06T16:32:19.912Z,19.8
2023-05-06T16:46:49.815Z,17.8
2023-05-06T16:48:53.621Z,17.6
2023-05-06T16:50:57.380Z,17.3
2023-05-06T16:55:05.002Z,16.3
2023-05-06T16:57:08.804Z,15.8
2023-05-06T16:59:12.918Z,15.4
2023-05-06T17:01:19.801Z,13.7
2023-05-06T17:03:23.603Z,13.6
2023-05-06T17:05:27.392Z,13.5
2023-05-06T17:10:01.626Z,13.6
2023-05-06T17:12:05.475Z,13.8
2023-05-06T17:16:16.495Z,14.1
2023-05-06T17:20:24.292Z,14.3
2023-05-06T17:24:31.883Z,14.6
2023-05-06T17:28:42.863Z,14.9
2023-05-06T17:30:46.817Z,14.9
2023-05-06T17:32:50.621Z,14.9
2023-05-06T17:34:54.444Z,14.9
2023-05-06T17:36:58.340Z,14.9
2023-05-06T17:39:02.149Z,15.1
2023-05-06T17:41:06.033Z,15.2
2023-05-06T17:47:20.909Z,15.1
2023-05-06T17:51:28.573Z,15.2
2023-05-06T17:55:36.286Z,15.2
2023-05-06T18:01:51.148Z,15.2
2023-05-06T18:02:54.722Z,15.2
2023-05-06T18:04:58.501Z,15.2
2023-05-06T18:07:02.383Z,15.3
2023-05-06T18:09:06.239Z,15.3
2023-05-06T18:11:13.357Z,15.4
2023-05-06T18:13:17.274Z,15.3
2023-05-06T18:15:21.035Z,15.1
2023-05-06T18:17:24.907Z,14.9
2023-05-06T18:19:28.729Z,14.9
2023-05-06T18:38:06.914Z,14.8
2023-05-06T18:48:29.432Z,15
2023-05-06T18:54:44.288Z,14.6
2023-05-06T18:56:48.264Z,14.5
2023-05-06T18:58:52.015Z,14.4
2023-05-06T18:59:55.574Z,14.4
2023-05-06T19:04:03.362Z,14.4
2023-05-06T19:06:07.121Z,14.5
2023-05-06T19:12:21.930Z,14.4
2023-05-06T19:16:29.756Z,14.4
2023-05-06T19:33:03.831Z,14.5
2023-05-06T19:35:08.153Z,14.5
2023-05-06T19:39:18.697Z,14.4
2023-05-06T19:43:26.409Z,14.4
2023-05-06T19:47:34.134Z,14.3
2023-05-06T19:49:37.936Z,14.3
2023-05-06T19:51:45.059Z,14.3
2023-05-06T19:53:48.937Z,14.3
2023-05-06T19:55:52.748Z,14.4
2023-05-06T19:56:56.327Z,14.3
2023-05-06T20:05:15.048Z,14.3
2023-05-06T20:07:20.494Z,14.3
2023-05-06T20:09:22.768Z,14.3
2023-05-06T20:11:26.626Z,14.3
2023-05-06T20:13:30.592Z,14.2
2023-05-06T20:15:34.310Z,14.3
2023-05-06T20:17:38.222Z,14.2
2023-05-06T20:19:45.325Z,14.3
2023-05-06T20:21:49.187Z,14.2
2023-05-06T20:23:53.016Z,14.3
2023-05-06T20:25:56.868Z,14.3
2023-05-06T20:30:04.618Z,14.3
2023-05-06T20:34:15.583Z,14.3
2023-05-06T20:36:19.430Z,14.4
2023-05-06T20:42:30.977Z,14.3
2023-05-06T20:44:34.855Z,14.1
2023-05-06T20:48:45.857Z,14.2
2023-05-06T20:57:27.855Z,14.1
2023-05-06T20:59:31.718Z,14.1
2023-05-06T21:01:38.957Z,14.1
2023-05-06T21:03:42.713Z,14.1
2023-05-06T21:05:46.549Z,14.1
2023-05-06T21:07:50.433Z,14.1
2023-05-06T21:09:54.258Z,14.1
2023-05-06T21:11:58.101Z,14.1
2023-05-06T21:18:13.045Z,14.1
2023-05-06T21:28:32.208Z,13.9
2023-05-06T21:30:39.386Z,13.9
2023-05-06T21:32:43.274Z,13.9
2023-05-06T21:36:50.954Z,13.9
2023-05-06T21:38:54.811Z,13.8
2023-05-06T21:40:58.674Z,13.9
2023-05-06T21:45:09.834Z,13.9
2023-05-06T21:52:24.802Z,13.9
2023-05-06T21:54:28.679Z,13.8
2023-05-06T21:56:32.543Z,13.8
2023-05-06T22:00:43.541Z,13.9
2023-05-06T22:02:49.174Z,13.8
2023-05-06T22:04:52.836Z,13.9
2023-05-06T22:06:56.722Z,13.9
2023-05-06T22:13:11.600Z,13.8
2023-05-06T22:19:23.160Z,13.8
2023-05-06T22:21:27.009Z,13.9
2023-05-06T22:23:30.910Z,13.8
2023-05-06T22:27:41.885Z,13.9
2023-05-06T22:29:45.744Z,13.9
2023-05-06T22:33:53.442Z,13.8
2023-05-06T22:46:19.939Z,13.9
2023-05-06T22:47:23.523Z,13.9
2023-05-06T22:49:27.331Z,13.9
2023-05-06T22:51:31.182Z,13.8
2023-05-06T22:59:49.907Z,13.9
2023-05-06T23:01:53.786Z,13.9
2023-05-06T23:03:57.685Z,13.9
2023-05-06T23:06:01.515Z,13.9
2023-05-06T23:08:05.379Z,13.9
2023-05-06T23:12:16.372Z,13.8
2023-05-06T23:14:20.228Z,13.7
2023-05-06T23:16:24.155Z,13.8
2023-05-06T23:18:27.976Z,13.8
2023-05-06T23:20:31.819Z,13.8
2023-05-06T23:22:35.699Z,13.8
2023-05-06T23:24:42.804Z,13.9
2023-05-06T23:30:54.575Z,13.8
2023-05-06T23:32:58.355Z,13.9
2023-05-06T23:35:02.144Z,13.8
2023-05-06T23:37:05.962Z,13.8
2023-05-06T23:41:16.985Z,13.8
2023-05-06T23:44:24.394Z,13.8
2023-05-06T23:50:35.960Z,13.8
2023-05-06T23:56:50.799Z,13.8
2023-05-06T23:58:54.688Z,13.8
